sensor_id;sensor_type;location;lat;lon;timestamp;P1;durP1;ratioP1;P2;durP2;ratioP2
58876;SDS011;44659;47.002;9.536;2024-01-30T00:01:00;3.55;;;1.77;;
58876;SDS011;44659;47.002;9.536;2024-01-30T00:03:26;4.68;;;1.95;;
58876;SDS011;44659;47.002;9.536;2024-01-30T00:05:52;2.33;;;1.17;;
58876;SDS011;44659;47.002;9.536;2024-01-30T00:08:17;2.63;;;1.38;;
58876;SDS011;44659;47.002;9.536;2024-01-30T00:10:42;4.82;;;1.05;;
58876;SDS011;44659;47.002;9.536;2024-01-30T00:13:08;10.07;;;1.92;;
58876;SDS011;44659;47.002;9.536;2024-01-30T00:15:34;4.18;;;1.80;;
58876;SDS011;44659;47.002;9.536;2024-01-30T00:17:59;4.95;;;1.85;;
58876;SDS011;44659;47.002;9.536;2024-01-30T00:20:25;6.18;;;1.60;;
58876;SDS011;44659;47.002;9.536;2024-01-30T00:22:50;4.63;;;1.70;;
58876;SDS011;44659;47.002;9.536;2024-01-30T00:25:16;2.97;;;1.35;;
58876;SDS011;44659;47.002;9.536;2024-01-30T00:27:41;3.38;;;1.55;;
58876;SDS011;44659;47.002;9.536;2024-01-30T00:30:06;3.92;;;1.75;;
58876;SDS011;44659;47.002;9.536;2024-01-30T00:32:32;3.92;;;1.63;;
58876;SDS011;44659;47.002;9.536;2024-01-30T00:35:00;5.80;;;1.63;;
58876;SDS011;44659;47.002;9.536;2024-01-30T00:37:26;4.07;;;1.92;;
58876;SDS011;44659;47.002;9.536;2024-01-30T00:39:51;4.32;;;1.77;;
58876;SDS011;44659;47.002;9.536;2024-01-30T00:42:16;4.85;;;1.58;;
58876;SDS011;44659;47.002;9.536;2024-01-30T00:44:42;7.75;;;1.70;;
58876;SDS011;44659;47.002;9.536;2024-01-30T00:47:10;4.22;;;1.77;;
58876;SDS011;44659;47.002;9.536;2024-01-30T00:49:36;3.85;;;1.60;;
58876;SDS011;44659;47.002;9.536;2024-01-30T00:52:01;3.53;;;1.50;;
58876;SDS011;44659;47.002;9.536;2024-01-30T00:54:27;3.72;;;1.60;;
58876;SDS011;44659;47.002;9.536;2024-01-30T00:56:52;2.38;;;1.48;;
58876;SDS011;44659;47.002;9.536;2024-01-30T00:59:17;3.58;;;1.60;;
58876;SDS011;44659;47.002;9.536;2024-01-30T01:01:43;2.92;;;1.35;;
58876;SDS011;44659;47.002;9.536;2024-01-30T01:04:08;3.67;;;1.48;;
58876;SDS011;44659;47.002;9.536;2024-01-30T01:06:33;3.03;;;1.50;;
58876;SDS011;44659;47.002;9.536;2024-01-30T01:08:59;3.80;;;1.30;;
58876;SDS011;44659;47.002;9.536;2024-01-30T01:11:24;7.63;;;1.70;;
58876;SDS011;44659;47.002;9.536;2024-01-30T01:13:49;2.25;;;1.10;;
58876;SDS011;44659;47.002;9.536;2024-01-30T01:16:15;2.83;;;1.27;;
58876;SDS011;44659;47.002;9.536;2024-01-30T01:18:40;2.30;;;1.10;;
58876;SDS011;44659;47.002;9.536;2024-01-30T01:21:05;2.60;;;1.42;;
58876;SDS011;44659;47.002;9.536;2024-01-30T01:23:31;4.60;;;1.60;;
58876;SDS011;44659;47.002;9.536;2024-01-30T01:25:56;3.55;;;1.42;;
58876;SDS011;44659;47.002;9.536;2024-01-30T01:28:22;4.05;;;1.80;;
58876;SDS011;44659;47.002;9.536;2024-01-30T01:30:47;6.22;;;1.77;;
58876;SDS011;44659;47.002;9.536;2024-01-30T01:33:12;3.90;;;1.90;;
58876;SDS011;44659;47.002;9.536;2024-01-30T01:35:39;3.38;;;1.50;;
58876;SDS011;44659;47.002;9.536;2024-01-30T01:38:05;4.95;;;1.60;;
58876;SDS011;44659;47.002;9.536;2024-01-30T01:40:30;2.92;;;1.48;;
58876;SDS011;44659;47.002;9.536;2024-01-30T01:42:56;3.25;;;1.20;;
58876;SDS011;44659;47.002;9.536;2024-01-30T01:45:21;2.45;;;1.30;;
58876;SDS011;44659;47.002;9.536;2024-01-30T01:47:48;2.40;;;1.08;;
58876;SDS011;44659;47.002;9.536;2024-01-30T01:50:15;2.83;;;1.40;;
58876;SDS011;44659;47.002;9.536;2024-01-30T01:52:43;1.48;;;0.90;;
58876;SDS011;44659;47.002;9.536;2024-01-30T01:55:09;2.67;;;1.02;;
58876;SDS011;44659;47.002;9.536;2024-01-30T01:57:35;2.42;;;1.10;;
58876;SDS011;44659;47.002;9.536;2024-01-30T02:00:01;2.83;;;1.30;;
58876;SDS011;44659;47.002;9.536;2024-01-30T02:02:28;3.30;;;1.50;;
58876;SDS011;44659;47.002;9.536;2024-01-30T02:04:55;3.63;;;1.60;;
58876;SDS011;44659;47.002;9.536;2024-01-30T02:07:21;4.40;;;1.10;;
58876;SDS011;44659;47.002;9.536;2024-01-30T02:09:47;2.13;;;1.10;;
58876;SDS011;44659;47.002;9.536;2024-01-30T02:12:12;3.03;;;1.30;;
58876;SDS011;44659;47.002;9.536;2024-01-30T02:14:44;2.65;;;1.20;;
58876;SDS011;44659;47.002;9.536;2024-01-30T02:17:10;2.63;;;1.30;;
58876;SDS011;44659;47.002;9.536;2024-01-30T02:19:35;2.65;;;1.17;;
58876;SDS011;44659;47.002;9.536;2024-01-30T02:22:00;3.50;;;1.15;;
58876;SDS011;44659;47.002;9.536;2024-01-30T02:24:26;1.80;;;0.90;;
58876;SDS011;44659;47.002;9.536;2024-01-30T02:26:51;2.20;;;1.20;;
58876;SDS011;44659;47.002;9.536;2024-01-30T02:29:17;1.38;;;0.90;;
58876;SDS011;44659;47.002;9.536;2024-01-30T02:31:42;2.88;;;1.27;;
58876;SDS011;44659;47.002;9.536;2024-01-30T02:34:07;2.08;;;1.00;;
58876;SDS011;44659;47.002;9.536;2024-01-30T02:36:33;2.50;;;1.02;;
58876;SDS011;44659;47.002;9.536;2024-01-30T02:38:58;1.30;;;0.70;;
58876;SDS011;44659;47.002;9.536;2024-01-30T02:41:24;2.88;;;0.90;;
58876;SDS011;44659;47.002;9.536;2024-01-30T02:43:49;2.92;;;0.93;;
58876;SDS011;44659;47.002;9.536;2024-01-30T02:46:14;2.42;;;1.00;;
58876;SDS011;44659;47.002;9.536;2024-01-30T02:48:40;2.28;;;0.90;;
58876;SDS011;44659;47.002;9.536;2024-01-30T02:51:05;2.88;;;0.98;;
58876;SDS011;44659;47.002;9.536;2024-01-30T02:53:30;2.42;;;1.08;;
58876;SDS011;44659;47.002;9.536;2024-01-30T02:55:56;1.98;;;1.05;;
58876;SDS011;44659;47.002;9.536;2024-01-30T02:58:21;2.80;;;1.17;;
58876;SDS011;44659;47.002;9.536;2024-01-30T03:00:47;2.63;;;1.15;;
58876;SDS011;44659;47.002;9.536;2024-01-30T03:03:12;3.10;;;1.45;;
58876;SDS011;44659;47.002;9.536;2024-01-30T03:05:38;3.80;;;1.20;;
58876;SDS011;44659;47.002;9.536;2024-01-30T03:08:04;2.42;;;1.17;;
58876;SDS011;44659;47.002;9.536;2024-01-30T03:10:29;2.95;;;1.08;;
58876;SDS011;44659;47.002;9.536;2024-01-30T03:12:54;2.55;;;1.17;;
58876;SDS011;44659;47.002;9.536;2024-01-30T03:15:20;2.15;;;1.00;;
58876;SDS011;44659;47.002;9.536;2024-01-30T03:17:45;3.85;;;1.23;;
58876;SDS011;44659;47.002;9.536;2024-01-30T03:20:10;2.78;;;1.13;;
58876;SDS011;44659;47.002;9.536;2024-01-30T03:22:36;2.17;;;1.00;;
58876;SDS011;44659;47.002;9.536;2024-01-30T03:25:01;3.38;;;1.30;;
58876;SDS011;44659;47.002;9.536;2024-01-30T03:27:27;3.55;;;1.20;;
58876;SDS011;44659;47.002;9.536;2024-01-30T03:29:52;2.35;;;1.10;;
58876;SDS011;44659;47.002;9.536;2024-01-30T03:32:17;4.32;;;1.35;;
58876;SDS011;44659;47.002;9.536;2024-01-30T03:34:43;3.28;;;1.20;;
58876;SDS011;44659;47.002;9.536;2024-01-30T03:37:08;3.70;;;1.50;;
58876;SDS011;44659;47.002;9.536;2024-01-30T03:39:33;3.20;;;1.20;;
58876;SDS011;44659;47.002;9.536;2024-01-30T03:41:59;2.85;;;1.35;;
58876;SDS011;44659;47.002;9.536;2024-01-30T03:44:24;2.25;;;1.13;;
58876;SDS011;44659;47.002;9.536;2024-01-30T03:46:50;3.17;;;1.33;;
58876;SDS011;44659;47.002;9.536;2024-01-30T03:49:15;3.42;;;1.30;;
58876;SDS011;44659;47.002;9.536;2024-01-30T03:51:41;2.30;;;1.00;;
58876;SDS011;44659;47.002;9.536;2024-01-30T03:54:06;2.47;;;0.90;;
58876;SDS011;44659;47.002;9.536;2024-01-30T03:56:32;2.38;;;1.00;;
58876;SDS011;44659;47.002;9.536;2024-01-30T03:58:57;2.97;;;1.10;;
58876;SDS011;44659;47.002;9.536;2024-01-30T04:01:23;2.80;;;1.15;;
58876;SDS011;44659;47.002;9.536;2024-01-30T04:03:49;2.10;;;1.00;;
58876;SDS011;44659;47.002;9.536;2024-01-30T04:06:14;2.03;;;0.93;;
58876;SDS011;44659;47.002;9.536;2024-01-30T04:08:41;2.58;;;1.00;;
58876;SDS011;44659;47.002;9.536;2024-01-30T04:11:06;3.65;;;1.20;;
58876;SDS011;44659;47.002;9.536;2024-01-30T04:13:32;4.05;;;1.15;;
58876;SDS011;44659;47.002;9.536;2024-01-30T04:16:01;1.88;;;0.93;;
58876;SDS011;44659;47.002;9.536;2024-01-30T04:18:27;2.15;;;0.93;;
58876;SDS011;44659;47.002;9.536;2024-01-30T04:20:52;4.25;;;1.60;;
58876;SDS011;44659;47.002;9.536;2024-01-30T04:23:17;2.42;;;1.00;;
58876;SDS011;44659;47.002;9.536;2024-01-30T04:25:43;4.40;;;1.33;;
58876;SDS011;44659;47.002;9.536;2024-01-30T04:28:08;3.70;;;1.00;;
58876;SDS011;44659;47.002;9.536;2024-01-30T04:30:33;2.22;;;0.90;;
58876;SDS011;44659;47.002;9.536;2024-01-30T04:32:59;2.95;;;1.20;;
58876;SDS011;44659;47.002;9.536;2024-01-30T04:35:24;2.65;;;1.00;;
58876;SDS011;44659;47.002;9.536;2024-01-30T04:37:51;2.05;;;1.00;;
58876;SDS011;44659;47.002;9.536;2024-01-30T04:40:17;5.13;;;1.77;;
58876;SDS011;44659;47.002;9.536;2024-01-30T04:42:43;4.15;;;1.25;;
58876;SDS011;44659;47.002;9.536;2024-01-30T04:45:09;2.58;;;1.10;;
58876;SDS011;44659;47.002;9.536;2024-01-30T04:47:34;3.45;;;1.00;;
58876;SDS011;44659;47.002;9.536;2024-01-30T04:49:59;2.42;;;1.10;;
58876;SDS011;44659;47.002;9.536;2024-01-30T04:52:25;1.73;;;0.98;;
58876;SDS011;44659;47.002;9.536;2024-01-30T04:54:50;3.42;;;1.27;;
58876;SDS011;44659;47.002;9.536;2024-01-30T04:57:15;2.08;;;1.10;;
58876;SDS011;44659;47.002;9.536;2024-01-30T04:59:41;3.17;;;1.33;;
58876;SDS011;44659;47.002;9.536;2024-01-30T05:02:06;4.75;;;1.40;;
58876;SDS011;44659;47.002;9.536;2024-01-30T05:04:32;3.92;;;1.20;;
58876;SDS011;44659;47.002;9.536;2024-01-30T05:06:57;3.17;;;1.27;;
58876;SDS011;44659;47.002;9.536;2024-01-30T05:09:22;2.08;;;1.10;;
58876;SDS011;44659;47.002;9.536;2024-01-30T05:11:48;5.38;;;1.23;;
58876;SDS011;44659;47.002;9.536;2024-01-30T05:14:13;2.42;;;1.00;;
58876;SDS011;44659;47.002;9.536;2024-01-30T05:16:40;2.58;;;1.30;;
58876;SDS011;44659;47.002;9.536;2024-01-30T05:19:06;3.30;;;1.20;;
58876;SDS011;44659;47.002;9.536;2024-01-30T05:21:31;2.20;;;1.20;;
58876;SDS011;44659;47.002;9.536;2024-01-30T05:23:56;2.13;;;1.02;;
58876;SDS011;44659;47.002;9.536;2024-01-30T05:26:22;1.98;;;1.08;;
58876;SDS011;44659;47.002;9.536;2024-01-30T05:28:48;2.03;;;1.00;;
58876;SDS011;44659;47.002;9.536;2024-01-30T05:31:13;1.70;;;0.90;;
58876;SDS011;44659;47.002;9.536;2024-01-30T05:33:39;4.03;;;0.95;;
58876;SDS011;44659;47.002;9.536;2024-01-30T05:36:05;1.48;;;0.80;;
58876;SDS011;44659;47.002;9.536;2024-01-30T05:38:31;1.45;;;0.73;;
58876;SDS011;44659;47.002;9.536;2024-01-30T05:40:57;2.90;;;0.90;;
58876;SDS011;44659;47.002;9.536;2024-01-30T05:43:26;2.15;;;0.90;;
58876;SDS011;44659;47.002;9.536;2024-01-30T05:45:52;2.00;;;1.00;;
58876;SDS011;44659;47.002;9.536;2024-01-30T05:48:18;4.72;;;1.25;;
58876;SDS011;44659;47.002;9.536;2024-01-30T05:50:43;2.90;;;1.05;;
58876;SDS011;44659;47.002;9.536;2024-01-30T05:53:08;2.63;;;1.00;;
58876;SDS011;44659;47.002;9.536;2024-01-30T05:55:34;3.05;;;1.00;;
58876;SDS011;44659;47.002;9.536;2024-01-30T05:57:59;2.85;;;1.20;;
58876;SDS011;44659;47.002;9.536;2024-01-30T06:00:25;1.95;;;1.00;;
58876;SDS011;44659;47.002;9.536;2024-01-30T06:02:50;2.47;;;1.10;;
58876;SDS011;44659;47.002;9.536;2024-01-30T06:05:15;4.68;;;0.95;;
58876;SDS011;44659;47.002;9.536;2024-01-30T06:07:41;2.88;;;1.10;;
58876;SDS011;44659;47.002;9.536;2024-01-30T06:10:06;2.25;;;1.02;;
58876;SDS011;44659;47.002;9.536;2024-01-30T06:12:34;1.85;;;0.93;;
58876;SDS011;44659;47.002;9.536;2024-01-30T06:14:59;2.33;;;0.90;;
58876;SDS011;44659;47.002;9.536;2024-01-30T06:17:25;2.85;;;1.20;;
58876;SDS011;44659;47.002;9.536;2024-01-30T06:19:50;5.00;;;1.27;;
58876;SDS011;44659;47.002;9.536;2024-01-30T06:22:16;3.90;;;1.60;;
58876;SDS011;44659;47.002;9.536;2024-01-30T06:24:42;1.60;;;0.82;;
58876;SDS011;44659;47.002;9.536;2024-01-30T06:27:10;1.75;;;0.90;;
58876;SDS011;44659;47.002;9.536;2024-01-30T06:29:35;4.95;;;1.70;;
58876;SDS011;44659;47.002;9.536;2024-01-30T06:32:01;8.48;;;3.08;;
58876;SDS011;44659;47.002;9.536;2024-01-30T06:34:26;10.13;;;3.45;;
58876;SDS011;44659;47.002;9.536;2024-01-30T06:36:52;6.22;;;2.67;;
58876;SDS011;44659;47.002;9.536;2024-01-30T06:39:17;3.53;;;1.33;;
58876;SDS011;44659;47.002;9.536;2024-01-30T06:41:43;1.55;;;0.90;;
58876;SDS011;44659;47.002;9.536;2024-01-30T06:44:08;3.00;;;1.08;;
58876;SDS011;44659;47.002;9.536;2024-01-30T06:46:34;2.22;;;0.90;;
58876;SDS011;44659;47.002;9.536;2024-01-30T06:49:00;2.33;;;0.80;;
58876;SDS011;44659;47.002;9.536;2024-01-30T06:51:26;1.08;;;0.80;;
58876;SDS011;44659;47.002;9.536;2024-01-30T06:53:51;2.65;;;1.00;;
58876;SDS011;44659;47.002;9.536;2024-01-30T06:56:17;2.05;;;1.00;;
58876;SDS011;44659;47.002;9.536;2024-01-30T06:58:47;3.83;;;1.10;;
58876;SDS011;44659;47.002;9.536;2024-01-30T07:01:12;1.45;;;0.90;;
58876;SDS011;44659;47.002;9.536;2024-01-30T07:03:37;3.17;;;1.75;;
58876;SDS011;44659;47.002;9.536;2024-01-30T07:06:03;1.67;;;0.90;;
58876;SDS011;44659;47.002;9.536;2024-01-30T07:08:28;2.17;;;1.00;;
58876;SDS011;44659;47.002;9.536;2024-01-30T07:10:54;2.50;;;0.98;;
58876;SDS011;44659;47.002;9.536;2024-01-30T07:13:20;2.30;;;1.02;;
58876;SDS011;44659;47.002;9.536;2024-01-30T07:15:45;4.80;;;1.20;;
58876;SDS011;44659;47.002;9.536;2024-01-30T07:18:11;3.67;;;1.27;;
58876;SDS011;44659;47.002;9.536;2024-01-30T07:20:38;4.28;;;1.20;;
58876;SDS011;44659;47.002;9.536;2024-01-30T07:23:10;5.55;;;1.10;;
58876;SDS011;44659;47.002;9.536;2024-01-30T07:25:39;4.60;;;1.17;;
58876;SDS011;44659;47.002;9.536;2024-01-30T07:28:06;8.13;;;1.10;;
58876;SDS011;44659;47.002;9.536;2024-01-30T07:30:32;1.55;;;0.90;;
58876;SDS011;44659;47.002;9.536;2024-01-30T07:32:57;1.75;;;0.80;;
58876;SDS011;44659;47.002;9.536;2024-01-30T07:35:23;3.10;;;1.08;;
58876;SDS011;44659;47.002;9.536;2024-01-30T07:37:48;3.13;;;1.00;;
58876;SDS011;44659;47.002;9.536;2024-01-30T07:40:13;3.65;;;1.30;;
58876;SDS011;44659;47.002;9.536;2024-01-30T07:42:39;5.50;;;1.30;;
58876;SDS011;44659;47.002;9.536;2024-01-30T07:45:04;2.40;;;1.05;;
58876;SDS011;44659;47.002;9.536;2024-01-30T07:47:30;2.58;;;0.98;;
58876;SDS011;44659;47.002;9.536;2024-01-30T07:49:55;2.40;;;1.02;;
58876;SDS011;44659;47.002;9.536;2024-01-30T07:52:21;3.50;;;0.90;;
58876;SDS011;44659;47.002;9.536;2024-01-30T07:54:46;2.10;;;0.93;;
58876;SDS011;44659;47.002;9.536;2024-01-30T07:57:12;3.13;;;1.20;;
58876;SDS011;44659;47.002;9.536;2024-01-30T07:59:37;1.55;;;0.80;;
58876;SDS011;44659;47.002;9.536;2024-01-30T08:02:03;3.05;;;1.00;;
58876;SDS011;44659;47.002;9.536;2024-01-30T08:04:28;2.30;;;0.88;;
58876;SDS011;44659;47.002;9.536;2024-01-30T08:06:54;2.00;;;1.00;;
58876;SDS011;44659;47.002;9.536;2024-01-30T08:09:19;2.70;;;1.10;;
58876;SDS011;44659;47.002;9.536;2024-01-30T08:11:44;2.60;;;0.90;;
58876;SDS011;44659;47.002;9.536;2024-01-30T08:14:10;2.70;;;1.00;;
58876;SDS011;44659;47.002;9.536;2024-01-30T08:16:35;2.22;;;1.00;;
58876;SDS011;44659;47.002;9.536;2024-01-30T08:19:01;1.88;;;0.80;;
58876;SDS011;44659;47.002;9.536;2024-01-30T08:21:26;2.00;;;1.10;;
58876;SDS011;44659;47.002;9.536;2024-01-30T08:23:52;3.17;;;1.30;;
58876;SDS011;44659;47.002;9.536;2024-01-30T08:26:17;3.92;;;1.23;;
58876;SDS011;44659;47.002;9.536;2024-01-30T08:28:43;5.13;;;1.52;;
58876;SDS011;44659;47.002;9.536;2024-01-30T08:31:10;6.00;;;1.05;;
58876;SDS011;44659;47.002;9.536;2024-01-30T08:33:35;2.92;;;1.02;;
58876;SDS011;44659;47.002;9.536;2024-01-30T08:36:01;2.58;;;1.30;;
58876;SDS011;44659;47.002;9.536;2024-01-30T08:38:26;1.67;;;0.90;;
58876;SDS011;44659;47.002;9.536;2024-01-30T08:40:51;1.85;;;0.90;;
58876;SDS011;44659;47.002;9.536;2024-01-30T08:43:17;2.45;;;1.13;;
58876;SDS011;44659;47.002;9.536;2024-01-30T08:45:42;2.10;;;1.00;;
58876;SDS011;44659;47.002;9.536;2024-01-30T08:48:08;1.63;;;0.88;;
58876;SDS011;44659;47.002;9.536;2024-01-30T08:50:33;2.17;;;0.98;;
58876;SDS011;44659;47.002;9.536;2024-01-30T08:52:59;2.10;;;0.93;;
58876;SDS011;44659;47.002;9.536;2024-01-30T08:55:25;4.05;;;1.00;;
58876;SDS011;44659;47.002;9.536;2024-01-30T08:57:50;4.20;;;0.90;;
58876;SDS011;44659;47.002;9.536;2024-01-30T09:00:17;4.50;;;0.93;;
58876;SDS011;44659;47.002;9.536;2024-01-30T09:02:42;4.75;;;0.98;;
58876;SDS011;44659;47.002;9.536;2024-01-30T09:05:08;2.80;;;1.10;;
58876;SDS011;44659;47.002;9.536;2024-01-30T09:07:33;2.25;;;0.90;;
58876;SDS011;44659;47.002;9.536;2024-01-30T09:09:59;4.07;;;1.15;;
58876;SDS011;44659;47.002;9.536;2024-01-30T09:12:24;2.55;;;0.82;;
58876;SDS011;44659;47.002;9.536;2024-01-30T09:14:50;4.50;;;1.20;;
58876;SDS011;44659;47.002;9.536;2024-01-30T09:17:15;3.60;;;1.05;;
58876;SDS011;44659;47.002;9.536;2024-01-30T09:19:40;2.30;;;0.95;;
58876;SDS011;44659;47.002;9.536;2024-01-30T09:22:06;7.95;;;1.00;;
58876;SDS011;44659;47.002;9.536;2024-01-30T09:24:31;2.95;;;1.00;;
58876;SDS011;44659;47.002;9.536;2024-01-30T09:26:57;8.35;;;1.20;;
58876;SDS011;44659;47.002;9.536;2024-01-30T09:29:22;1.38;;;0.80;;
58876;SDS011;44659;47.002;9.536;2024-01-30T09:31:47;2.15;;;1.20;;
58876;SDS011;44659;47.002;9.536;2024-01-30T09:34:13;2.75;;;1.10;;
58876;SDS011;44659;47.002;9.536;2024-01-30T09:36:39;2.95;;;0.93;;
58876;SDS011;44659;47.002;9.536;2024-01-30T09:39:04;2.78;;;1.17;;
58876;SDS011;44659;47.002;9.536;2024-01-30T09:41:37;2.50;;;1.02;;
58876;SDS011;44659;47.002;9.536;2024-01-30T09:44:05;2.65;;;1.30;;
58876;SDS011;44659;47.002;9.536;2024-01-30T09:46:31;3.88;;;1.27;;
58876;SDS011;44659;47.002;9.536;2024-01-30T09:48:57;2.75;;;1.00;;
58876;SDS011;44659;47.002;9.536;2024-01-30T09:51:23;3.60;;;1.15;;
58876;SDS011;44659;47.002;9.536;2024-01-30T09:53:49;8.70;;;1.27;;
58876;SDS011;44659;47.002;9.536;2024-01-30T09:56:14;3.00;;;1.35;;
58876;SDS011;44659;47.002;9.536;2024-01-30T09:58:40;4.57;;;1.02;;
58876;SDS011;44659;47.002;9.536;2024-01-30T10:01:05;3.58;;;1.15;;
58876;SDS011;44659;47.002;9.536;2024-01-30T10:03:31;3.05;;;1.05;;
58876;SDS011;44659;47.002;9.536;2024-01-30T10:05:59;4.70;;;1.20;;
58876;SDS011;44659;47.002;9.536;2024-01-30T10:08:26;3.28;;;1.08;;
58876;SDS011;44659;47.002;9.536;2024-01-30T10:10:51;2.33;;;0.93;;
58876;SDS011;44659;47.002;9.536;2024-01-30T10:13:17;2.28;;;0.98;;
58876;SDS011;44659;47.002;9.536;2024-01-30T10:15:42;3.38;;;1.20;;
58876;SDS011;44659;47.002;9.536;2024-01-30T10:18:08;2.75;;;1.00;;
58876;SDS011;44659;47.002;9.536;2024-01-30T10:20:35;2.75;;;0.75;;
58876;SDS011;44659;47.002;9.536;2024-01-30T10:23:01;2.90;;;0.80;;
58876;SDS011;44659;47.002;9.536;2024-01-30T10:25:26;3.40;;;1.30;;
58876;SDS011;44659;47.002;9.536;2024-01-30T10:27:55;2.88;;;1.00;;
58876;SDS011;44659;47.002;9.536;2024-01-30T10:30:21;6.80;;;1.08;;
58876;SDS011;44659;47.002;9.536;2024-01-30T10:32:46;4.28;;;0.98;;
58876;SDS011;44659;47.002;9.536;2024-01-30T10:35:12;2.95;;;0.95;;
58876;SDS011;44659;47.002;9.536;2024-01-30T10:37:37;2.60;;;0.90;;
58876;SDS011;44659;47.002;9.536;2024-01-30T10:40:03;2.45;;;1.05;;
58876;SDS011;44659;47.002;9.536;2024-01-30T10:42:31;3.13;;;1.33;;
58876;SDS011;44659;47.002;9.536;2024-01-30T10:45:07;2.47;;;1.08;;
58876;SDS011;44659;47.002;9.536;2024-01-30T10:47:43;4.40;;;1.10;;
58876;SDS011;44659;47.002;9.536;2024-01-30T10:50:10;2.72;;;1.00;;
58876;SDS011;44659;47.002;9.536;2024-01-30T10:52:36;1.90;;;0.80;;
58876;SDS011;44659;47.002;9.536;2024-01-30T10:55:01;6.80;;;1.00;;
58876;SDS011;44659;47.002;9.536;2024-01-30T10:57:30;3.42;;;1.10;;
58876;SDS011;44659;47.002;9.536;2024-01-30T10:59:56;7.53;;;1.13;;
58876;SDS011;44659;47.002;9.536;2024-01-30T11:02:23;5.15;;;1.20;;
58876;SDS011;44659;47.002;9.536;2024-01-30T11:04:55;3.45;;;1.02;;
58876;SDS011;44659;47.002;9.536;2024-01-30T11:07:27;4.50;;;1.10;;
58876;SDS011;44659;47.002;9.536;2024-01-30T11:09:53;2.67;;;1.15;;
58876;SDS011;44659;47.002;9.536;2024-01-30T11:12:23;3.35;;;1.23;;
58876;SDS011;44659;47.002;9.536;2024-01-30T11:15:01;7.90;;;1.42;;
58876;SDS011;44659;47.002;9.536;2024-01-30T11:17:29;4.55;;;1.30;;
58876;SDS011;44659;47.002;9.536;2024-01-30T11:20:04;2.67;;;0.95;;
58876;SDS011;44659;47.002;9.536;2024-01-30T11:22:30;5.10;;;1.55;;
58876;SDS011;44659;47.002;9.536;2024-01-30T11:24:55;4.30;;;1.00;;
58876;SDS011;44659;47.002;9.536;2024-01-30T11:27:22;6.22;;;1.40;;
58876;SDS011;44659;47.002;9.536;2024-01-30T11:29:49;4.45;;;1.00;;
58876;SDS011;44659;47.002;9.536;2024-01-30T11:32:21;3.13;;;1.27;;
58876;SDS011;44659;47.002;9.536;2024-01-30T11:34:48;4.93;;;1.02;;
58876;SDS011;44659;47.002;9.536;2024-01-30T11:37:14;3.97;;;1.20;;
58876;SDS011;44659;47.002;9.536;2024-01-30T11:39:40;3.63;;;1.35;;
58876;SDS011;44659;47.002;9.536;2024-01-30T11:42:07;3.83;;;1.48;;
58876;SDS011;44659;47.002;9.536;2024-01-30T11:44:34;2.80;;;1.30;;
58876;SDS011;44659;47.002;9.536;2024-01-30T11:46:59;2.88;;;1.13;;
58876;SDS011;44659;47.002;9.536;2024-01-30T11:49:25;4.43;;;1.10;;
58876;SDS011;44659;47.002;9.536;2024-01-30T11:51:50;2.50;;;1.15;;
58876;SDS011;44659;47.002;9.536;2024-01-30T11:54:16;3.45;;;1.20;;
58876;SDS011;44659;47.002;9.536;2024-01-30T11:56:42;3.92;;;1.30;;
58876;SDS011;44659;47.002;9.536;2024-01-30T11:59:07;5.40;;;1.30;;
58876;SDS011;44659;47.002;9.536;2024-01-30T12:01:33;3.95;;;1.50;;
58876;SDS011;44659;47.002;9.536;2024-01-30T12:03:58;5.20;;;1.13;;
58876;SDS011;44659;47.002;9.536;2024-01-30T12:06:24;6.72;;;1.50;;
58876;SDS011;44659;47.002;9.536;2024-01-30T12:08:59;4.43;;;1.10;;
58876;SDS011;44659;47.002;9.536;2024-01-30T12:11:26;6.57;;;1.60;;
58876;SDS011;44659;47.002;9.536;2024-01-30T12:13:52;3.47;;;0.90;;
58876;SDS011;44659;47.002;9.536;2024-01-30T12:16:19;3.70;;;1.45;;
58876;SDS011;44659;47.002;9.536;2024-01-30T12:18:44;3.97;;;1.23;;
58876;SDS011;44659;47.002;9.536;2024-01-30T12:21:10;6.35;;;1.30;;
58876;SDS011;44659;47.002;9.536;2024-01-30T12:23:35;3.30;;;1.08;;
58876;SDS011;44659;47.002;9.536;2024-01-30T12:26:01;10.27;;;1.25;;
58876;SDS011;44659;47.002;9.536;2024-01-30T12:28:28;7.97;;;1.40;;
58876;SDS011;44659;47.002;9.536;2024-01-30T12:31:00;6.40;;;1.25;;
58876;SDS011;44659;47.002;9.536;2024-01-30T12:33:26;3.42;;;1.20;;
58876;SDS011;44659;47.002;9.536;2024-01-30T12:35:53;10.40;;;1.67;;
58876;SDS011;44659;47.002;9.536;2024-01-30T12:38:18;5.03;;;1.90;;
58876;SDS011;44659;47.002;9.536;2024-01-30T12:40:44;5.68;;;2.25;;
58876;SDS011;44659;47.002;9.536;2024-01-30T12:43:10;4.93;;;2.05;;
58876;SDS011;44659;47.002;9.536;2024-01-30T12:45:36;5.75;;;2.72;;
58876;SDS011;44659;47.002;9.536;2024-01-30T12:48:01;7.47;;;2.83;;
58876;SDS011;44659;47.002;9.536;2024-01-30T12:50:27;5.40;;;2.38;;
58876;SDS011;44659;47.002;9.536;2024-01-30T12:52:52;6.45;;;2.58;;
58876;SDS011;44659;47.002;9.536;2024-01-30T12:55:18;4.15;;;2.22;;
58876;SDS011;44659;47.002;9.536;2024-01-30T12:57:43;3.65;;;1.60;;
58876;SDS011;44659;47.002;9.536;2024-01-30T13:00:09;6.70;;;1.95;;
58876;SDS011;44659;47.002;9.536;2024-01-30T13:02:35;7.63;;;2.25;;
58876;SDS011;44659;47.002;9.536;2024-01-30T13:05:04;4.28;;;1.80;;
58876;SDS011;44659;47.002;9.536;2024-01-30T13:07:30;7.57;;;1.73;;
58876;SDS011;44659;47.002;9.536;2024-01-30T13:09:58;5.50;;;2.45;;
58876;SDS011;44659;47.002;9.536;2024-01-30T13:12:28;7.90;;;2.92;;
58876;SDS011;44659;47.002;9.536;2024-01-30T13:14:54;5.63;;;2.92;;
58876;SDS011;44659;47.002;9.536;2024-01-30T13:17:20;6.30;;;3.35;;
58876;SDS011;44659;47.002;9.536;2024-01-30T13:19:45;6.32;;;2.90;;
58876;SDS011;44659;47.002;9.536;2024-01-30T13:22:10;8.90;;;3.22;;
58876;SDS011;44659;47.002;9.536;2024-01-30T13:24:36;5.90;;;3.38;;
58876;SDS011;44659;47.002;9.536;2024-01-30T13:27:02;6.35;;;3.20;;
58876;SDS011;44659;47.002;9.536;2024-01-30T13:29:28;7.18;;;3.38;;
58876;SDS011;44659;47.002;9.536;2024-01-30T13:31:53;7.93;;;3.30;;
58876;SDS011;44659;47.002;9.536;2024-01-30T13:34:19;7.47;;;3.00;;
58876;SDS011;44659;47.002;9.536;2024-01-30T13:36:44;9.85;;;2.80;;
58876;SDS011;44659;47.002;9.536;2024-01-30T13:39:10;6.78;;;2.95;;
58876;SDS011;44659;47.002;9.536;2024-01-30T13:41:37;5.38;;;2.78;;
58876;SDS011;44659;47.002;9.536;2024-01-30T13:44:03;13.63;;;3.30;;
58876;SDS011;44659;47.002;9.536;2024-01-30T13:46:29;7.13;;;3.10;;
58876;SDS011;44659;47.002;9.536;2024-01-30T13:48:54;5.72;;;2.55;;
58876;SDS011;44659;47.002;9.536;2024-01-30T13:51:20;7.95;;;3.13;;
58876;SDS011;44659;47.002;9.536;2024-01-30T13:53:45;6.75;;;3.40;;
58876;SDS011;44659;47.002;9.536;2024-01-30T13:56:11;7.05;;;3.20;;
58876;SDS011;44659;47.002;9.536;2024-01-30T13:58:36;13.52;;;3.25;;
58876;SDS011;44659;47.002;9.536;2024-01-30T14:01:02;7.22;;;3.30;;
58876;SDS011;44659;47.002;9.536;2024-01-30T14:03:27;11.43;;;3.08;;
58876;SDS011;44659;47.002;9.536;2024-01-30T14:05:53;7.03;;;3.78;;
58876;SDS011;44659;47.002;9.536;2024-01-30T14:08:18;9.95;;;3.28;;
58876;SDS011;44659;47.002;9.536;2024-01-30T14:10:46;14.85;;;3.80;;
58876;SDS011;44659;47.002;9.536;2024-01-30T14:13:12;8.45;;;2.90;;
58876;SDS011;44659;47.002;9.536;2024-01-30T14:15:37;7.78;;;3.25;;
58876;SDS011;44659;47.002;9.536;2024-01-30T14:18:03;6.97;;;3.58;;
58876;SDS011;44659;47.002;9.536;2024-01-30T14:20:29;7.60;;;3.45;;
58876;SDS011;44659;47.002;9.536;2024-01-30T14:22:54;7.93;;;3.55;;
58876;SDS011;44659;47.002;9.536;2024-01-30T14:25:20;6.93;;;3.28;;
58876;SDS011;44659;47.002;9.536;2024-01-30T14:27:46;14.25;;;3.83;;
58876;SDS011;44659;47.002;9.536;2024-01-30T14:30:11;11.32;;;4.22;;
58876;SDS011;44659;47.002;9.536;2024-01-30T14:32:37;8.88;;;4.15;;
58876;SDS011;44659;47.002;9.536;2024-01-30T14:35:03;8.25;;;4.55;;
58876;SDS011;44659;47.002;9.536;2024-01-30T14:37:29;8.20;;;3.60;;
58876;SDS011;44659;47.002;9.536;2024-01-30T14:39:55;11.65;;;4.10;;